Time;durP1;ratioP1;P1;durP2;ratioP2;P2;SDS_P1;SDS_P2;PMS_P1;PMS_P2;Temp;Humidity;BMP_temperature;BMP_pressure;BME280_temperature;BME280_humidity;BME280_pressure;Samples;Min_cycle;Max_cycle;Signal;HPM_P1;HPM_P2
2023/01/27 00:00:58;;;;;;;3.17;2.17;;;;;;;;;;4989388;28;20026;-63
2023/01/27 00:03:23;;;;;;;3.30;2.30;;;;;;;;;;4989675;28;20875;-63
2023/01/27 00:05:49;;;;;;;2.88;2.13;;;;;;;;;;4987242;28;20474;-62
2023/01/27 00:08:14;;;;;;;2.53;2.13;;;;;;;;;;5005755;28;20077;-61
2023/01/27 00:10:39;;;;;;;3.83;2.30;;;;;;;;;;5006774;28;20295;-60
2023/01/27 00:15:48;;;;;;;2.72;2.22;;;;;;;;;;4989959;28;20467;-61
2023/01/27 00:18:13;;;;;;;2.40;1.95;;;;;;;;;;4982898;28;20133;-63
2023/01/27 00:26:09;;;;;;;2.95;2.10;;;;;;;;;;5003600;28;20064;-62
2023/01/27 00:28:34;;;;;;;2.30;1.98;;;;;;;;;;5006336;28;20038;-62
2023/01/27 00:31:00;;;;;;;2.58;2.03;;;;;;;;;;5006302;28;20497;-61
2023/01/27 00:33:26;;;;;;;2.70;2.28;;;;;;;;;;5006010;28;20482;-63
2023/01/27 00:36:01;;;;;;;2.70;2.30;;;;;;;;;;5004448;28;20165;-63
2023/01/27 00:38:30;;;;;;;2.70;2.00;;;;;;;;;;4971619;28;20485;-62
2023/01/27 00:43:39;;;;;;;2.97;2.10;;;;;;;;;;5006869;28;20037;-63
2023/01/27 00:46:04;;;;;;;2.97;2.30;;;;;;;;;;4987923;28;20460;-61
2023/01/27 00:48:29;;;;;;;2.93;2.00;;;;;;;;;;5004882;28;20166;-62
2023/01/27 00:50:55;;;;;;;2.85;2.00;;;;;;;;;;5005795;28;20829;-60
2023/01/27 00:53:20;;;;;;;2.35;1.98;;;;;;;;;;4988480;28;20121;-63
2023/01/27 00:55:48;;;;;;;2.80;2.10;;;;;;;;;;5005913;28;20033;-62
2023/01/27 00:58:13;;;;;;;2.50;2.00;;;;;;;;;;4972634;28;20285;-63
2023/01/27 01:00:39;;;;;;;2.95;2.10;;;;;;;;;;4988327;28;20060;-62
2023/01/27 01:03:04;;;;;;;3.57;2.40;;;;;;;;;;4988383;28;20038;-64
2023/01/27 01:05:29;;;;;;;2.75;2.10;;;;;;;;;;5004172;28;20281;-63
2023/01/27 01:07:55;;;;;;;3.13;2.00;;;;;;;;;;4986790;28;20045;-63
2023/01/27 01:10:20;;;;;;;2.43;1.87;;;;;;;;;;5005459;28;20708;-63
2023/01/27 01:12:45;;;;;;;3.20;2.20;;;;;;;;;;5005593;28;20268;-63
2023/01/27 01:15:10;;;;;;;2.85;2.20;;;;;;;;;;4986311;28;20280;-63
2023/01/27 01:17:35;;;;;;;2.90;2.13;;;;;;;;;;5005736;28;20516;-62
2023/01/27 01:20:01;;;;;;;3.00;2.10;;;;;;;;;;5005748;28;20038;-66
2023/01/27 01:22:26;;;;;;;2.70;2.03;;;;;;;;;;5006033;28;20280;-61
2023/01/27 01:24:51;;;;;;;3.03;2.00;;;;;;;;;;4987762;28;20784;-62
2023/01/27 01:27:16;;;;;;;2.60;2.00;;;;;;;;;;5005387;28;20695;-60
2023/01/27 01:29:42;;;;;;;2.83;2.00;;;;;;;;;;4987559;28;20265;-64
2023/01/27 01:32:08;;;;;;;2.30;1.80;;;;;;;;;;4985330;28;20325;-63
2023/01/27 01:34:34;;;;;;;2.85;2.15;;;;;;;;;;5004414;28;20304;-63
2023/01/27 01:36:59;;;;;;;3.08;2.20;;;;;;;;;;4985494;28;20040;-63
2023/01/27 01:39:24;;;;;;;2.93;2.00;;;;;;;;;;4991699;28;20081;-62
2023/01/27 01:41:50;;;;;;;2.63;1.87;;;;;;;;;;5024771;28;20057;-61
2023/01/27 01:44:21;;;;;;;3.00;2.17;;;;;;;;;;5012210;28;20280;-62
2023/01/27 01:46:47;;;;;;;2.75;2.10;;;;;;;;;;4991778;28;20780;-63
2023/01/27 01:49:12;;;;;;;2.67;1.77;;;;;;;;;;5006096;28;20032;-62
2023/01/27 01:51:38;;;;;;;3.07;1.90;;;;;;;;;;4997811;28;21104;-64
2023/01/27 01:54:22;;;;;;;2.80;2.10;;;;;;;;;;5008640;28;20123;-62
2023/01/27 01:56:59;;;;;;;2.80;1.95;;;;;;;;;;4985173;28;20042;-62
2023/01/27 01:59:31;;;;;;;2.35;1.90;;;;;;;;;;5008613;28;20157;-60
2023/01/27 02:01:57;;;;;;;2.17;1.85;;;;;;;;;;4990865;28;20038;-63
2023/01/27 02:04:24;;;;;;;2.20;1.75;;;;;;;;;;5024052;28;20044;-59
2023/01/27 02:07:00;;;;;;;3.00;2.10;;;;;;;;;;4993983;28;20124;-63
2023/01/27 02:09:26;;;;;;;2.67;2.00;;;;;;;;;;5007877;28;20040;-64
2023/01/27 02:11:51;;;;;;;2.20;1.80;;;;;;;;;;4990895;28;20034;-64
2023/01/27 02:14:16;;;;;;;3.07;2.03;;;;;;;;;;4971243;28;20042;-60
2023/01/27 02:16:42;;;;;;;2.25;1.52;;;;;;;;;;5006574;28;20277;-61
2023/01/27 02:19:08;;;;;;;2.23;1.60;;;;;;;;;;5008551;28;20074;-62
2023/01/27 02:21:34;;;;;;;3.10;2.00;;;;;;;;;;4991006;28;20891;-62
2023/01/27 02:23:59;;;;;;;2.45;1.80;;;;;;;;;;5008190;28;20117;-62
2023/01/27 02:26:32;;;;;;;2.80;1.58;;;;;;;;;;5007110;28;20113;-62
2023/01/27 02:28:58;;;;;;;2.38;1.90;;;;;;;;;;5007060;28;20038;-63
2023/01/27 02:31:23;;;;;;;2.22;1.70;;;;;;;;;;5007844;28;20422;-62
2023/01/27 02:33:49;;;;;;;2.35;1.80;;;;;;;;;;5007901;28;20042;-63
2023/01/27 02:36:15;;;;;;;2.60;1.92;;;;;;;;;;4989031;28;20045;-63
2023/01/27 02:38:47;;;;;;;2.40;1.50;;;;;;;;;;5006804;28;20058;-63
2023/01/27 02:41:18;;;;;;;3.00;2.13;;;;;;;;;;5006201;28;20108;-63
2023/01/27 02:43:44;;;;;;;2.78;1.98;;;;;;;;;;4995423;28;20046;-63
2023/01/27 02:46:09;;;;;;;2.33;1.50;;;;;;;;;;4990009;28;20034;-60
2023/01/27 02:48:34;;;;;;;2.57;1.80;;;;;;;;;;5007360;28;20045;-63
2023/01/27 02:50:59;;;;;;;2.43;1.43;;;;;;;;;;5007307;28;20363;-62
2023/01/27 02:53:24;;;;;;;2.40;1.70;;;;;;;;;;5008556;28;20315;-63
2023/01/27 02:55:50;;;;;;;2.35;1.58;;;;;;;;;;5007222;28;20339;-62
2023/01/27 02:58:15;;;;;;;2.40;1.73;;;;;;;;;;5007070;28;20177;-60
2023/01/27 03:00:41;;;;;;;2.55;1.77;;;;;;;;;;4990476;28;20319;-63
2023/01/27 03:03:06;;;;;;;2.67;1.88;;;;;;;;;;5007719;28;20037;-64
2023/01/27 03:05:32;;;;;;;2.45;1.60;;;;;;;;;;4990013;28;20438;-64
2023/01/27 03:07:57;;;;;;;2.40;1.70;;;;;;;;;;5006778;28;20549;-61
2023/01/27 03:10:22;;;;;;;2.47;2.00;;;;;;;;;;5007431;28;20877;-63
2023/01/27 03:12:47;;;;;;;2.50;1.70;;;;;;;;;;5007020;28;20993;-63
2023/01/27 03:18:12;;;;;;;2.22;1.60;;;;;;;;;;4993760;28;20347;-63
2023/01/27 03:20:47;;;;;;;2.40;1.58;;;;;;;;;;5007055;28;20480;-63
2023/01/27 03:23:13;;;;;;;2.60;2.00;;;;;;;;;;5005940;28;20525;-63
2023/01/27 03:25:42;;;;;;;2.65;1.70;;;;;;;;;;4988199;28;20034;-61
2023/01/27 03:28:07;;;;;;;2.10;1.80;;;;;;;;;;5006845;28;20034;-62
2023/01/27 03:30:33;;;;;;;2.20;1.65;;;;;;;;;;5007057;28;20103;-59
2023/01/27 03:32:58;;;;;;;2.92;2.10;;;;;;;;;;5006778;28;20034;-61
2023/01/27 03:35:33;;;;;;;2.10;1.58;;;;;;;;;;5019205;28;20071;-60
2023/01/27 03:46:18;;;;;;;2.47;1.73;;;;;;;;;;5005447;28;20520;-64
2023/01/27 03:48:44;;;;;;;2.33;1.50;;;;;;;;;;5006415;28;20402;-62
2023/01/27 03:51:09;;;;;;;2.38;1.65;;;;;;;;;;4975821;28;20046;-62
2023/01/27 03:53:35;;;;;;;2.28;1.70;;;;;;;;;;5006702;28;20521;-63
2023/01/27 03:56:00;;;;;;;1.90;1.60;;;;;;;;;;4988594;28;20046;-60
2023/01/27 03:58:26;;;;;;;1.92;1.50;;;;;;;;;;5019731;28;20903;-63
2023/01/27 04:00:52;;;;;;;2.92;1.90;;;;;;;;;;4988602;28;20117;-62
2023/01/27 04:08:46;;;;;;;2.40;1.70;;;;;;;;;;5009771;28;20417;-61
2023/01/27 04:13:58;;;;;;;2.47;1.95;;;;;;;;;;5005070;28;20284;-64
2023/01/27 04:16:27;;;;;;;1.95;1.50;;;;;;;;;;4986701;28;20046;-61
2023/01/27 04:18:52;;;;;;;2.53;1.70;;;;;;;;;;4989204;28;20076;-63
2023/01/27 04:21:18;;;;;;;2.37;1.80;;;;;;;;;;4988343;28;20135;-62
2023/01/27 04:23:43;;;;;;;2.57;1.73;;;;;;;;;;5006563;28;20284;-63
2023/01/27 04:26:08;;;;;;;2.03;1.70;;;;;;;;;;5008300;28;20324;-63
2023/01/27 04:28:33;;;;;;;2.17;1.67;;;;;;;;;;5017194;28;20065;-61
2023/01/27 04:30:59;;;;;;;2.30;1.50;;;;;;;;;;4987039;28;20626;-62
2023/01/27 04:33:24;;;;;;;2.50;1.90;;;;;;;;;;4991185;28;21061;-64
2023/01/27 04:35:50;;;;;;;2.47;1.85;;;;;;;;;;4988335;28;20054;-62
2023/01/27 04:38:16;;;;;;;2.55;1.92;;;;;;;;;;5004164;28;20070;-61
2023/01/27 04:40:42;;;;;;;2.07;1.60;;;;;;;;;;5005839;28;20060;-64
2023/01/27 04:43:07;;;;;;;2.58;1.73;;;;;;;;;;5004640;28;20277;-63
2023/01/27 04:45:32;;;;;;;2.20;1.70;;;;;;;;;;4987300;28;20426;-61
2023/01/27 04:47:57;;;;;;;2.05;1.60;;;;;;;;;;4985523;28;20312;-63
2023/01/27 04:50:23;;;;;;;2.70;1.60;;;;;;;;;;5005015;28;20042;-62
2023/01/27 04:52:48;;;;;;;2.65;1.90;;;;;;;;;;5004691;28;20276;-60
2023/01/27 04:55:13;;;;;;;2.67;2.10;;;;;;;;;;5005982;28;20042;-62
2023/01/27 04:57:38;;;;;;;2.10;1.90;;;;;;;;;;4988078;28;20789;-62
2023/01/27 05:00:04;;;;;;;1.93;1.67;;;;;;;;;;5008824;28;20509;-61
2023/01/27 05:02:30;;;;;;;2.58;1.85;;;;;;;;;;4993165;28;20338;-63
2023/01/27 05:04:55;;;;;;;2.42;1.65;;;;;;;;;;5004421;28;20034;-64
2023/01/27 05:07:20;;;;;;;3.13;1.60;;;;;;;;;;5003355;28;20052;-64
2023/01/27 05:09:45;;;;;;;1.80;1.40;;;;;;;;;;5002964;28;20277;-63
2023/01/27 05:12:11;;;;;;;2.50;1.70;;;;;;;;;;5004022;28;20273;-65
2023/01/27 05:14:36;;;;;;;2.60;1.57;;;;;;;;;;4986432;28;20029;-60
2023/01/27 05:17:01;;;;;;;2.50;1.53;;;;;;;;;;5004541;28;20277;-62
2023/01/27 05:19:26;;;;;;;2.15;1.60;;;;;;;;;;5002886;28;20034;-60
2023/01/27 05:21:52;;;;;;;2.60;1.90;;;;;;;;;;5001250;28;20038;-61
2023/01/27 05:24:17;;;;;;;2.72;2.00;;;;;;;;;;5002590;28;20291;-62
2023/01/27 05:26:42;;;;;;;2.07;1.50;;;;;;;;;;5002759;28;20034;-60
2023/01/27 05:29:08;;;;;;;2.10;1.70;;;;;;;;;;5002662;28;20415;-62
2023/01/27 05:31:33;;;;;;;2.35;1.70;;;;;;;;;;4984890;28;20288;-62
2023/01/27 05:33:59;;;;;;;2.33;1.63;;;;;;;;;;5003155;28;20473;-60
2023/01/27 05:36:24;;;;;;;2.08;1.60;;;;;;;;;;4980714;28;20054;-61
2023/01/27 05:38:49;;;;;;;1.70;1.40;;;;;;;;;;4985036;28;20046;-65
2023/01/27 05:41:15;;;;;;;2.22;1.70;;;;;;;;;;5004186;28;20042;-62
2023/01/27 05:43:41;;;;;;;2.28;1.48;;;;;;;;;;5003036;28;20040;-64
2023/01/27 05:46:06;;;;;;;2.63;1.80;;;;;;;;;;5004020;28;20038;-65
2023/01/27 05:48:32;;;;;;;2.90;1.80;;;;;;;;;;5003610;28;20034;-63
2023/01/27 05:50:58;;;;;;;2.30;1.70;;;;;;;;;;4986029;28;20104;-60
2023/01/27 05:53:23;;;;;;;2.05;1.58;;;;;;;;;;5002540;28;20042;-61
2023/01/27 05:55:49;;;;;;;4.07;1.40;;;;;;;;;;4985198;28;20513;-62
2023/01/27 05:58:14;;;;;;;1.90;1.70;;;;;;;;;;4985397;28;20065;-62
2023/01/27 06:00:39;;;;;;;2.13;1.30;;;;;;;;;;5001047;28;20042;-63
2023/01/27 06:03:04;;;;;;;1.93;1.60;;;;;;;;;;5004434;28;20030;-65
2023/01/27 06:05:30;;;;;;;1.83;1.37;;;;;;;;;;5005563;28;20858;-65
2023/01/27 06:07:55;;;;;;;2.60;1.63;;;;;;;;;;4986670;28;20108;-65
2023/01/27 06:10:20;;;;;;;2.20;1.70;;;;;;;;;;4985700;28;20569;-61
2023/01/27 06:12:45;;;;;;;2.72;1.40;;;;;;;;;;5002937;28;20048;-62
2023/01/27 06:15:10;;;;;;;1.93;1.50;;;;;;;;;;5000522;28;20418;-59
2023/01/27 06:17:36;;;;;;;2.20;1.43;;;;;;;;;;5003168;28;20301;-67
2023/01/27 06:20:01;;;;;;;2.33;1.40;;;;;;;;;;4988177;28;20072;-61
2023/01/27 06:22:26;;;;;;;2.37;1.57;;;;;;;;;;5004296;28;20308;-66
2023/01/27 06:24:51;;;;;;;2.00;1.60;;;;;;;;;;4989336;28;20096;-61
2023/01/27 06:27:17;;;;;;;2.10;1.50;;;;;;;;;;5006616;28;20041;-64
2023/01/27 06:29:42;;;;;;;2.03;1.40;;;;;;;;;;5006718;28;20277;-64
2023/01/27 06:32:07;;;;;;;2.00;1.40;;;;;;;;;;5008003;28;20641;-65
2023/01/27 06:34:33;;;;;;;1.70;1.37;;;;;;;;;;4995905;28;20595;-66
2023/01/27 06:36:58;;;;;;;1.98;1.65;;;;;;;;;;5000417;28;20354;-63
2023/01/27 06:39:23;;;;;;;2.10;1.50;;;;;;;;;;4980018;28;20056;-62
2023/01/27 06:41:49;;;;;;;2.80;1.70;;;;;;;;;;4995179;28;20303;-63
2023/01/27 06:44:14;;;;;;;2.15;1.42;;;;;;;;;;4982863;28;20430;-60
2023/01/27 06:46:39;;;;;;;2.03;1.30;;;;;;;;;;5005384;28;20490;-63
2023/01/27 06:49:05;;;;;;;2.10;1.30;;;;;;;;;;4988102;28;20374;-63
2023/01/27 06:51:30;;;;;;;2.30;1.43;;;;;;;;;;5008058;28;20510;-63
2023/01/27 06:53:55;;;;;;;3.43;1.40;;;;;;;;;;4988985;28;20292;-62
2023/01/27 06:56:20;;;;;;;2.05;1.33;;;;;;;;;;4987457;28;20419;-61
2023/01/27 06:58:45;;;;;;;1.83;1.43;;;;;;;;;;5006731;28;20053;-63
2023/01/27 07:01:11;;;;;;;2.17;1.60;;;;;;;;;;5006906;28;20045;-62
2023/01/27 07:03:36;;;;;;;2.17;1.58;;;;;;;;;;5003088;28;20549;-59
2023/01/27 07:06:01;;;;;;;1.77;1.43;;;;;;;;;;5006417;28;20541;-62
2023/01/27 07:08:27;;;;;;;2.08;1.30;;;;;;;;;;5005347;28;20044;-62
2023/01/27 07:10:52;;;;;;;1.87;1.40;;;;;;;;;;4998493;28;20425;-63
2023/01/27 07:13:17;;;;;;;1.80;1.30;;;;;;;;;;4970973;28;20129;-65
2023/01/27 07:15:43;;;;;;;1.63;1.27;;;;;;;;;;5005427;28;20497;-63
2023/01/27 07:18:08;;;;;;;1.90;1.38;;;;;;;;;;5005509;28;20042;-63
2023/01/27 07:20:33;;;;;;;2.08;1.60;;;;;;;;;;5004590;28;20045;-67
2023/01/27 07:22:59;;;;;;;1.70;1.37;;;;;;;;;;4990059;28;20052;-62
2023/01/27 07:25:24;;;;;;;3.17;1.38;;;;;;;;;;5007716;28;20312;-63
2023/01/27 07:27:50;;;;;;;2.00;1.65;;;;;;;;;;4989875;28;20477;-66
2023/01/27 07:30:15;;;;;;;2.20;1.60;;;;;;;;;;4988476;28;20053;-63
2023/01/27 07:32:40;;;;;;;2.22;1.70;;;;;;;;;;4973766;28;20147;-62
2023/01/27 07:35:06;;;;;;;2.10;1.60;;;;;;;;;;4986000;28;20108;-63
2023/01/27 07:37:31;;;;;;;1.90;1.52;;;;;;;;;;4997820;28;20309;-61
2023/01/27 07:39:56;;;;;;;2.23;1.67;;;;;;;;;;4969671;28;20046;-61
2023/01/27 07:42:21;;;;;;;2.37;1.77;;;;;;;;;;4997192;28;20343;-63
2023/01/27 07:44:47;;;;;;;2.70;1.60;;;;;;;;;;5006679;28;20041;-61
2023/01/27 07:47:12;;;;;;;2.60;1.50;;;;;;;;;;5006432;28;20265;-63
2023/01/27 07:49:37;;;;;;;2.37;1.63;;;;;;;;;;5007520;28;20346;-62
2023/01/27 07:52:02;;;;;;;1.93;1.43;;;;;;;;;;4989560;28;20280;-62
2023/01/27 07:54:27;;;;;;;2.35;1.50;;;;;;;;;;4989617;28;20323;-62
2023/01/27 07:56:53;;;;;;;2.03;1.50;;;;;;;;;;5006084;28;20561;-63
2023/01/27 07:59:18;;;;;;;2.20;1.50;;;;;;;;;;5006829;28;20645;-61
2023/01/27 08:01:43;;;;;;;2.22;1.60;;;;;;;;;;5006532;28;20399;-61
2023/01/27 08:04:09;;;;;;;2.30;1.38;;;;;;;;;;4989716;28;20085;-62
2023/01/27 08:06:36;;;;;;;2.42;1.50;;;;;;;;;;5006599;28;20042;-64
2023/01/27 08:09:01;;;;;;;2.70;1.58;;;;;;;;;;5006423;28;20518;-60
2023/01/27 08:11:26;;;;;;;2.37;1.60;;;;;;;;;;4989279;28;20042;-63
2023/01/27 08:13:52;;;;;;;2.70;1.70;;;;;;;;;;5005383;28;20785;-62
2023/01/27 08:16:17;;;;;;;2.58;1.48;;;;;;;;;;4988541;28;20277;-62
2023/01/27 08:18:42;;;;;;;2.27;1.50;;;;;;;;;;4988770;28;20513;-62
2023/01/27 08:21:08;;;;;;;2.20;1.60;;;;;;;;;;5006020;28;20140;-61
2023/01/27 08:23:34;;;;;;;2.10;1.50;;;;;;;;;;4988946;28;20030;-67
2023/01/27 08:25:59;;;;;;;2.53;1.80;;;;;;;;;;4988636;28;20045;-63
2023/01/27 08:28:25;;;;;;;2.00;1.50;;;;;;;;;;4988945;28;20029;-63
2023/01/27 08:30:50;;;;;;;2.95;1.80;;;;;;;;;;4988339;28;20068;-61
2023/01/27 08:33:16;;;;;;;3.22;1.70;;;;;;;;;;5006377;28;20042;-64
2023/01/27 08:35:43;;;;;;;3.20;1.60;;;;;;;;;;4995683;28;20112;-63
2023/01/27 08:38:09;;;;;;;2.58;1.80;;;;;;;;;;4997416;28;20108;-67
2023/01/27 08:40:34;;;;;;;2.58;1.83;;;;;;;;;;4988713;28;21606;-66
2023/01/27 08:43:00;;;;;;;2.93;1.73;;;;;;;;;;4977944;28;20491;-64
2023/01/27 08:45:26;;;;;;;2.35;1.85;;;;;;;;;;4979694;28;20268;-65
2023/01/27 08:47:51;;;;;;;2.50;1.77;;;;;;;;;;5020546;28;20041;-61
2023/01/27 08:50:16;;;;;;;3.03;2.10;;;;;;;;;;5006053;28;20033;-64
2023/01/27 08:52:41;;;;;;;3.53;1.90;;;;;;;;;;4988724;28;20058;-66
2023/01/27 08:55:07;;;;;;;2.77;1.80;;;;;;;;;;4988345;28;20022;-65
2023/01/27 08:57:32;;;;;;;2.65;1.73;;;;;;;;;;5006149;28;20392;-63
2023/01/27 08:59:57;;;;;;;3.85;1.80;;;;;;;;;;5006462;28;20049;-64
2023/01/27 09:02:23;;;;;;;2.38;1.80;;;;;;;;;;4988474;28;20489;-63
2023/01/27 09:04:48;;;;;;;2.95;1.90;;;;;;;;;;4971501;28;20042;-62
2023/01/27 09:07:13;;;;;;;2.75;1.70;;;;;;;;;;4986155;28;20037;-65
2023/01/27 09:09:39;;;;;;;2.77;2.10;;;;;;;;;;4989583;28;20418;-64
2023/01/27 09:12:04;;;;;;;2.60;1.90;;;;;;;;;;4968900;28;20401;-65
2023/01/27 09:14:29;;;;;;;3.28;1.70;;;;;;;;;;4979300;28;20453;-65
2023/01/27 09:16:54;;;;;;;5.13;1.95;;;;;;;;;;4994319;28;20093;-64
2023/01/27 09:19:20;;;;;;;3.10;1.53;;;;;;;;;;4996455;28;20115;-62
2023/01/27 09:21:45;;;;;;;4.17;1.73;;;;;;;;;;5000052;28;20323;-64
2023/01/27 09:24:12;;;;;;;2.10;1.60;;;;;;;;;;4998675;28;20018;-62
2023/01/27 09:26:37;;;;;;;2.67;1.70;;;;;;;;;;4993629;28;20285;-64
2023/01/27 09:29:02;;;;;;;3.53;1.73;;;;;;;;;;4998695;28;20042;-60
2023/01/27 09:31:28;;;;;;;2.43;1.57;;;;;;;;;;4993729;28;20495;-63
2023/01/27 09:33:53;;;;;;;3.73;2.00;;;;;;;;;;4989910;28;20533;-62
2023/01/27 09:36:19;;;;;;;3.43;1.93;;;;;;;;;;4972607;28;20434;-62
2023/01/27 09:38:48;;;;;;;2.97;1.80;;;;;;;;;;4966819;28;20054;-63
2023/01/27 09:41:26;;;;;;;4.25;2.08;;;;;;;;;;4949323;28;20038;-65
2023/01/27 09:44:00;;;;;;;3.13;2.00;;;;;;;;;;4980808;28;20422;-62
2023/01/27 09:46:29;;;;;;;4.30;2.10;;;;;;;;;;4963343;28;20046;-66
2023/01/27 09:49:13;;;;;;;3.75;1.80;;;;;;;;;;4982720;28;20034;-63
2023/01/27 09:51:38;;;;;;;5.55;1.77;;;;;;;;;;4985199;28;20035;-62
2023/01/27 09:54:10;;;;;;;9.03;1.90;;;;;;;;;;4985319;28;20085;-63
2023/01/27 09:56:35;;;;;;;4.78;1.98;;;;;;;;;;4985380;28;20506;-63
2023/01/27 09:59:03;;;;;;;4.27;2.03;;;;;;;;;;4986422;28;20045;-59
2023/01/27 10:02:04;;;;;;;5.90;1.90;;;;;;;;;;4995120;28;20353;-63
2023/01/27 10:04:36;;;;;;;3.45;1.70;;;;;;;;;;4945668;28;20107;-63
2023/01/27 10:07:11;;;;;;;3.95;1.83;;;;;;;;;;4989047;28;20038;-63
2023/01/27 10:09:43;;;;;;;3.65;1.83;;;;;;;;;;4989650;28;20073;-64
2023/01/27 10:12:29;;;;;;;3.65;1.75;;;;;;;;;;4954801;28;20027;-63
2023/01/27 10:15:13;;;;;;;5.80;1.88;;;;;;;;;;4986489;28;20407;-64
2023/01/27 10:17:42;;;;;;;5.22;2.03;;;;;;;;;;4987580;28;20466;-60
2023/01/27 10:20:26;;;;;;;5.78;2.10;;;;;;;;;;4970663;28;20061;-64
2023/01/27 10:22:51;;;;;;;4.88;2.08;;;;;;;;;;4984438;28;20133;-60
2023/01/27 10:25:16;;;;;;;4.70;2.07;;;;;;;;;;4970711;28;20471;-61
2023/01/27 10:27:49;;;;;;;3.33;1.83;;;;;;;;;;4988723;28;20280;-62
2023/01/27 10:30:17;;;;;;;4.10;1.90;;;;;;;;;;4996159;28;20441;-61
2023/01/27 10:32:43;;;;;;;4.05;1.95;;;;;;;;;;4954925;28;20069;-64
2023/01/27 10:35:19;;;;;;;4.40;1.58;;;;;;;;;;4987847;28;20150;-64
2023/01/27 10:37:50;;;;;;;2.60;1.60;;;;;;;;;;4990105;28;20038;-63
2023/01/27 10:40:18;;;;;;;3.97;2.08;;;;;;;;;;4990072;28;20043;-62
2023/01/27 10:42:47;;;;;;;4.80;1.98;;;;;;;;;;4998466;28;20100;-65
2023/01/27 10:45:28;;;;;;;4.10;1.75;;;;;;;;;;4989769;28;20060;-66
2023/01/27 10:48:12;;;;;;;4.10;1.80;;;;;;;;;;4991309;28;20042;-62
2023/01/27 10:50:37;;;;;;;2.88;1.67;;;;;;;;;;5008647;28;20030;-62
2023/01/27 10:53:05;;;;;;;4.33;2.10;;;;;;;;;;5007652;28;20512;-63
2023/01/27 10:55:37;;;;;;;3.40;1.67;;;;;;;;;;5006504;28;20056;-64
2023/01/27 10:58:04;;;;;;;3.45;2.13;;;;;;;;;;5007991;28;20488;-65
2023/01/27 11:00:33;;;;;;;4.07;2.17;;;;;;;;;;5008033;28;20038;-62
2023/01/27 11:03:02;;;;;;;4.18;2.10;;;;;;;;;;4973443;28;20460;-63
2023/01/27 11:05:32;;;;;;;3.08;1.83;;;;;;;;;;5007506;28;20038;-63
2023/01/27 11:08:00;;;;;;;4.68;1.98;;;;;;;;;;4984747;28;20069;-61
2023/01/27 11:10:28;;;;;;;3.72;2.00;;;;;;;;;;5004392;28;20096;-68
2023/01/27 11:12:53;;;;;;;3.42;1.88;;;;;;;;;;4988632;28;20038;-66
2023/01/27 11:15:18;;;;;;;5.05;1.90;;;;;;;;;;4972254;28;20674;-69
2023/01/27 11:17:45;;;;;;;2.70;1.67;;;;;;;;;;5007608;28;20046;-65
2023/01/27 11:20:24;;;;;;;3.20;1.85;;;;;;;;;;4989407;28;20301;-62
2023/01/27 11:22:57;;;;;;;4.15;1.90;;;;;;;;;;4973319;28;20030;-61
2023/01/27 11:25:24;;;;;;;3.25;2.00;;;;;;;;;;4989768;28;20080;-66
2023/01/27 11:27:55;;;;;;;3.50;1.83;;;;;;;;;;4989792;28;20664;-62
2023/01/27 11:30:31;;;;;;;2.42;1.55;;;;;;;;;;4988365;28;20040;-63
2023/01/27 11:33:05;;;;;;;3.35;2.00;;;;;;;;;;5003318;28;20438;-65
2023/01/27 11:35:30;;;;;;;3.70;2.00;;;;;;;;;;4986016;28;20676;-64
2023/01/27 11:37:55;;;;;;;3.07;1.70;;;;;;;;;;4985992;28;20149;-62
2023/01/27 11:40:26;;;;;;;3.80;1.87;;;;;;;;;;4969120;28;20655;-64
2023/01/27 11:42:51;;;;;;;4.15;1.90;;;;;;;;;;4965607;28;20290;-61
2023/01/27 11:45:17;;;;;;;3.50;1.80;;;;;;;;;;4962705;28;20097;-65
2023/01/27 11:47:43;;;;;;;2.83;1.70;;;;;;;;;;4965727;28;20385;-63
2023/01/27 11:50:19;;;;;;;3.45;1.98;;;;;;;;;;4964718;28;20626;-65
2023/01/27 11:52:45;;;;;;;2.70;1.88;;;;;;;;;;4965519;28;20086;-63
2023/01/27 11:55:13;;;;;;;3.17;1.92;;;;;;;;;;4967013;28;20031;-65
2023/01/27 11:57:41;;;;;;;2.17;1.48;;;;;;;;;;5001397;28;20429;-65
2023/01/27 12:00:19;;;;;;;2.05;1.40;;;;;;;;;;5000494;28;20112;-64
2023/01/27 12:02:46;;;;;;;2.30;1.65;;;;;;;;;;4984940;28;20042;-60
2023/01/27 12:05:18;;;;;;;3.70;1.55;;;;;;;;;;4983901;28;20070;-61
2023/01/27 12:07:59;;;;;;;2.63;1.77;;;;;;;;;;4986460;28;20037;-61
2023/01/27 12:10:25;;;;;;;3.05;1.80;;;;;;;;;;4983361;28;20046;-64
2023/01/27 12:12:50;;;;;;;2.45;1.50;;;;;;;;;;4986646;28;20045;-64
2023/01/27 12:15:16;;;;;;;2.73;1.67;;;;;;;;;;4984574;28;20046;-60
2023/01/27 12:17:42;;;;;;;2.20;1.70;;;;;;;;;;5000244;28;20412;-61
2023/01/27 12:20:13;;;;;;;2.72;1.58;;;;;;;;;;4985858;28;20371;-62
2023/01/27 12:22:38;;;;;;;2.10;1.40;;;;;;;;;;4986115;28;20041;-62
2023/01/27 12:25:05;;;;;;;3.03;1.58;;;;;;;;;;4985889;28;20098;-63
2023/01/27 12:27:33;;;;;;;3.00;1.73;;;;;;;;;;4984584;28;20408;-63
2023/01/27 12:29:59;;;;;;;2.20;1.50;;;;;;;;;;4984630;28;20035;-67
2023/01/27 12:32:33;;;;;;;3.75;1.60;;;;;;;;;;4984618;28;20140;-66
2023/01/27 12:34:58;;;;;;;2.60;1.90;;;;;;;;;;4983714;28;20054;-63
2023/01/27 12:37:34;;;;;;;2.27;1.50;;;;;;;;;;4983874;28;20039;-66
2023/01/27 12:40:02;;;;;;;3.47;1.85;;;;;;;;;;4985294;28;20281;-68
2023/01/27 12:42:40;;;;;;;2.70;1.58;;;;;;;;;;4984123;28;20167;-64
2023/01/27 12:45:22;;;;;;;2.47;1.52;;;;;;;;;;4982429;28;20050;-64
2023/01/27 12:47:58;;;;;;;2.30;1.50;;;;;;;;;;4999783;28;20509;-63
2023/01/27 12:50:24;;;;;;;2.63;1.40;;;;;;;;;;4982078;28;20117;-64
2023/01/27 12:53:12;;;;;;;3.00;1.70;;;;;;;;;;4982978;28;20731;-64
2023/01/27 12:55:58;;;;;;;4.00;1.60;;;;;;;;;;4980868;28;20109;-65
2023/01/27 12:58:26;;;;;;;2.15;1.50;;;;;;;;;;4981883;28;20053;-64
2023/01/27 13:00:51;;;;;;;2.03;1.60;;;;;;;;;;4984635;28;20113;-64
2023/01/27 13:03:17;;;;;;;1.97;1.43;;;;;;;;;;4984366;28;20593;-67
2023/01/27 13:05:42;;;;;;;2.63;1.73;;;;;;;;;;4984005;28;20550;-66
2023/01/27 13:08:12;;;;;;;2.00;1.70;;;;;;;;;;4981712;28;20300;-60
2023/01/27 13:10:37;;;;;;;3.03;1.83;;;;;;;;;;4985984;28;20034;-67
2023/01/27 13:13:03;;;;;;;2.33;1.60;;;;;;;;;;4984352;28;20213;-62
2023/01/27 13:15:29;;;;;;;2.38;1.42;;;;;;;;;;4984122;28;20043;-64
2023/01/27 13:17:55;;;;;;;2.28;1.45;;;;;;;;;;4967896;28;20035;-65
2023/01/27 13:20:27;;;;;;;2.88;1.48;;;;;;;;;;4985300;28;20060;-66
2023/01/27 13:22:53;;;;;;;2.75;1.48;;;;;;;;;;4978657;28;20035;-61
2023/01/27 13:25:23;;;;;;;2.10;1.45;;;;;;;;;;4954257;28;20121;-67
2023/01/27 13:27:48;;;;;;;2.30;1.40;;;;;;;;;;4949073;28;20027;-70
2023/01/27 13:30:21;;;;;;;2.50;1.63;;;;;;;;;;4964409;28;20031;-64
2023/01/27 13:32:47;;;;;;;2.30;1.67;;;;;;;;;;4964127;28;20074;-65
2023/01/27 13:35:29;;;;;;;2.28;1.50;;;;;;;;;;4965980;28;20110;-68
2023/01/27 13:37:57;;;;;;;2.60;1.58;;;;;;;;;;4981770;28;20046;-68
2023/01/27 13:40:25;;;;;;;2.58;1.70;;;;;;;;;;4992456;28;20122;-61
2023/01/27 13:42:52;;;;;;;2.38;1.45;;;;;;;;;;4965198;28;20047;-62
2023/01/27 13:45:19;;;;;;;2.70;1.48;;;;;;;;;;4975079;28;20053;-69
2023/01/27 13:48:03;;;;;;;2.67;1.70;;;;;;;;;;4987222;28;20492;-66
2023/01/27 13:50:36;;;;;;;2.90;1.70;;;;;;;;;;4966646;28;20046;-64
2023/01/27 13:53:02;;;;;;;3.03;1.73;;;;;;;;;;4981477;28;20046;-66
2023/01/27 13:55:45;;;;;;;2.10;1.50;;;;;;;;;;4967743;28;20133;-69
2023/01/27 13:58:23;;;;;;;2.47;1.58;;;;;;;;;;4997181;28;20097;-62
2023/01/27 14:00:48;;;;;;;2.85;1.70;;;;;;;;;;4965306;28;20050;-67
2023/01/27 14:03:30;;;;;;;2.60;1.37;;;;;;;;;;4985550;28;20101;-68
2023/01/27 14:06:14;;;;;;;2.35;1.40;;;;;;;;;;4985095;28;20462;-64
2023/01/27 14:08:40;;;;;;;2.35;1.45;;;;;;;;;;4985462;28;20046;-68
2023/01/27 14:11:24;;;;;;;2.70;1.60;;;;;;;;;;4995626;28;20042;-66
2023/01/27 14:13:58;;;;;;;2.42;1.55;;;;;;;;;;4973339;28;20121;-67
2023/01/27 14:16:23;;;;;;;3.35;1.40;;;;;;;;;;4997012;28;20050;-66
2023/01/27 14:18:49;;;;;;;2.60;1.60;;;;;;;;;;4966046;28;20499;-68
2023/01/27 14:21:38;;;;;;;2.35;1.38;;;;;;;;;;4961815;28;20070;-63
2023/01/27 14:24:19;;;;;;;1.98;1.27;;;;;;;;;;4978615;28;20422;-64
2023/01/27 14:26:48;;;;;;;1.95;1.40;;;;;;;;;;4984597;28;20132;-66
2023/01/27 14:29:18;;;;;;;2.20;1.50;;;;;;;;;;4983226;28;20053;-67
2023/01/27 14:31:45;;;;;;;3.17;1.38;;;;;;;;;;4965877;28;20038;-69
2023/01/27 14:34:13;;;;;;;3.25;1.60;;;;;;;;;;4983860;28;20573;-62
2023/01/27 14:36:43;;;;;;;2.40;1.55;;;;;;;;;;4985488;28;20050;-62
2023/01/27 14:39:17;;;;;;;2.15;1.35;;;;;;;;;;4983694;28;20133;-63
2023/01/27 14:41:48;;;;;;;2.45;1.52;;;;;;;;;;5002521;28;20537;-66
2023/01/27 14:44:29;;;;;;;2.63;1.50;;;;;;;;;;4984354;28;20523;-66
2023/01/27 14:46:54;;;;;;;2.35;1.30;;;;;;;;;;5003895;28;20492;-67
2023/01/27 14:49:22;;;;;;;2.20;1.50;;;;;;;;;;5006624;28;20311;-60
2023/01/27 14:51:56;;;;;;;1.73;1.20;;;;;;;;;;4987814;28;20030;-66
2023/01/27 14:54:25;;;;;;;2.20;1.30;;;;;;;;;;4984816;28;20133;-64
2023/01/27 14:57:09;;;;;;;2.08;1.50;;;;;;;;;;5007130;28;20030;-65
2023/01/27 14:59:40;;;;;;;2.97;1.50;;;;;;;;;;4992034;28;20515;-66
2023/01/27 15:02:24;;;;;;;2.05;1.30;;;;;;;;;;5004154;28;20555;-68
2023/01/27 15:05:05;;;;;;;2.45;1.38;;;;;;;;;;4987164;28;20034;-68
2023/01/27 15:07:39;;;;;;;1.88;1.30;;;;;;;;;;4988033;28;20049;-64
2023/01/27 15:10:23;;;;;;;2.63;1.80;;;;;;;;;;5007501;28;20033;-67
2023/01/27 15:12:51;;;;;;;2.33;1.45;;;;;;;;;;4968074;28;20457;-65
2023/01/27 15:15:20;;;;;;;2.08;1.40;;;;;;;;;;4986341;28;20085;-65
2023/01/27 15:17:58;;;;;;;2.20;1.55;;;;;;;;;;4991346;28;20057;-66